sensor_id;sensor_type;location;lat;lon;timestamp;P1;durP1;ratioP1;P2;durP2;ratioP2
67500;SDS011;54349;52.528;19.760;2022-09-25T00:01:26;11.40;;;6.80;;
67500;SDS011;54349;52.528;19.760;2022-09-25T00:03:55;10.90;;;6.70;;
67500;SDS011;54349;52.528;19.760;2022-09-25T00:06:25;10.80;;;6.70;;
67500;SDS011;54349;52.528;19.760;2022-09-25T00:08:55;10.40;;;6.40;;
67500;SDS011;54349;52.528;19.760;2022-09-25T00:11:29;11.50;;;6.20;;
67500;SDS011;54349;52.528;19.760;2022-09-25T00:14:00;10.40;;;6.60;;
67500;SDS011;54349;52.528;19.760;2022-09-25T00:16:30;11.20;;;6.80;;
67500;SDS011;54349;52.528;19.760;2022-09-25T00:19:00;9.60;;;6.40;;
67500;SDS011;54349;52.528;19.760;2022-09-25T00:21:47;10.90;;;6.30;;
67500;SDS011;54349;52.528;19.760;2022-09-25T00:24:20;11.00;;;6.10;;
67500;SDS011;54349;52.528;19.760;2022-09-25T00:26:49;10.70;;;6.20;;
67500;SDS011;54349;52.528;19.760;2022-09-25T00:29:18;10.80;;;6.40;;
67500;SDS011;54349;52.528;19.760;2022-09-25T00:31:47;10.60;;;6.20;;
67500;SDS011;54349;52.528;19.760;2022-09-25T00:34:15;10.70;;;6.20;;
67500;SDS011;54349;52.528;19.760;2022-09-25T00:36:43;11.00;;;6.50;;
67500;SDS011;54349;52.528;19.760;2022-09-25T00:39:11;11.20;;;6.40;;
67500;SDS011;54349;52.528;19.760;2022-09-25T00:41:40;13.10;;;6.90;;
67500;SDS011;54349;52.528;19.760;2022-09-25T00:44:50;10.90;;;6.60;;
67500;SDS011;54349;52.528;19.760;2022-09-25T00:50:36;9.80;;;6.30;;
67500;SDS011;54349;52.528;19.760;2022-09-25T00:53:16;9.90;;;6.30;;
67500;SDS011;54349;52.528;19.760;2022-09-25T00:55:48;10.00;;;6.30;;
67500;SDS011;54349;52.528;19.760;2022-09-25T00:58:20;10.30;;;6.10;;
67500;SDS011;54349;52.528;19.760;2022-09-25T01:00:51;8.70;;;6.00;;
67500;SDS011;54349;52.528;19.760;2022-09-25T01:03:21;9.70;;;6.70;;
67500;SDS011;54349;52.528;19.760;2022-09-25T01:05:50;9.40;;;6.00;;
67500;SDS011;54349;52.528;19.760;2022-09-25T01:08:24;10.80;;;6.30;;
67500;SDS011;54349;52.528;19.760;2022-09-25T01:10:57;9.00;;;5.90;;
67500;SDS011;54349;52.528;19.760;2022-09-25T01:13:25;10.00;;;5.90;;
67500;SDS011;54349;52.528;19.760;2022-09-25T01:19:11;9.50;;;5.60;;
67500;SDS011;54349;52.528;19.760;2022-09-25T01:21:53;11.00;;;6.30;;
67500;SDS011;54349;52.528;19.760;2022-09-25T01:30:49;10.80;;;6.50;;
67500;SDS011;54349;52.528;19.760;2022-09-25T01:33:34;8.90;;;6.30;;
67500;SDS011;54349;52.528;19.760;2022-09-25T01:36:15;9.10;;;5.80;;
67500;SDS011;54349;52.528;19.760;2022-09-25T01:38:52;9.60;;;6.00;;
67500;SDS011;54349;52.528;19.760;2022-09-25T01:41:31;11.30;;;6.10;;
67500;SDS011;54349;52.528;19.760;2022-09-25T01:46:52;10.10;;;6.00;;
67500;SDS011;54349;52.528;19.760;2022-09-25T01:49:27;9.40;;;6.20;;
67500;SDS011;54349;52.528;19.760;2022-09-25T01:52:01;9.60;;;6.00;;
67500;SDS011;54349;52.528;19.760;2022-09-25T01:54:40;8.80;;;6.10;;
67500;SDS011;54349;52.528;19.760;2022-09-25T01:57:21;9.90;;;6.10;;
67500;SDS011;54349;52.528;19.760;2022-09-25T02:00:00;8.90;;;5.60;;
67500;SDS011;54349;52.528;19.760;2022-09-25T02:02:45;10.00;;;6.10;;
67500;SDS011;54349;52.528;19.760;2022-09-25T02:05:28;8.70;;;5.80;;
67500;SDS011;54349;52.528;19.760;2022-09-25T02:08:02;10.20;;;6.20;;
67500;SDS011;54349;52.528;19.760;2022-09-25T02:10:40;9.90;;;6.10;;
67500;SDS011;54349;52.528;19.760;2022-09-25T02:13:15;9.80;;;6.30;;
67500;SDS011;54349;52.528;19.760;2022-09-25T02:16:01;9.20;;;5.80;;
67500;SDS011;54349;52.528;19.760;2022-09-25T02:18:33;10.10;;;6.40;;
67500;SDS011;54349;52.528;19.760;2022-09-25T02:24:17;10.00;;;6.30;;
67500;SDS011;54349;52.528;19.760;2022-09-25T02:26:54;9.90;;;5.80;;
67500;SDS011;54349;52.528;19.760;2022-09-25T02:29:22;9.50;;;6.10;;
67500;SDS011;54349;52.528;19.760;2022-09-25T02:31:57;10.90;;;5.80;;
67500;SDS011;54349;52.528;19.760;2022-09-25T02:34:30;8.70;;;5.70;;
67500;SDS011;54349;52.528;19.760;2022-09-25T02:37:00;9.00;;;6.00;;
67500;SDS011;54349;52.528;19.760;2022-09-25T02:39:29;9.50;;;6.00;;
67500;SDS011;54349;52.528;19.760;2022-09-25T02:45:05;8.70;;;5.60;;
67500;SDS011;54349;52.528;19.760;2022-09-25T02:53:46;9.20;;;5.80;;
67500;SDS011;54349;52.528;19.760;2022-09-25T02:59:07;8.90;;;5.70;;
67500;SDS011;54349;52.528;19.760;2022-09-25T03:01:42;8.90;;;5.80;;
67500;SDS011;54349;52.528;19.760;2022-09-25T03:04:15;9.60;;;5.60;;
67500;SDS011;54349;52.528;19.760;2022-09-25T03:06:45;8.60;;;6.00;;
67500;SDS011;54349;52.528;19.760;2022-09-25T03:09:14;8.00;;;5.50;;
67500;SDS011;54349;52.528;19.760;2022-09-25T03:11:44;9.10;;;6.00;;
67500;SDS011;54349;52.528;19.760;2022-09-25T03:14:12;9.30;;;6.00;;
67500;SDS011;54349;52.528;19.760;2022-09-25T03:16:46;8.40;;;5.70;;
67500;SDS011;54349;52.528;19.760;2022-09-25T03:19:20;8.90;;;5.80;;
67500;SDS011;54349;52.528;19.760;2022-09-25T03:21:48;9.40;;;5.80;;
67500;SDS011;54349;52.528;19.760;2022-09-25T03:24:17;8.60;;;5.90;;
67500;SDS011;54349;52.528;19.760;2022-09-25T03:26:45;9.30;;;5.80;;
67500;SDS011;54349;52.528;19.760;2022-09-25T03:29:15;9.10;;;5.50;;
67500;SDS011;54349;52.528;19.760;2022-09-25T03:31:44;8.70;;;5.70;;
67500;SDS011;54349;52.528;19.760;2022-09-25T03:34:14;8.70;;;5.60;;
67500;SDS011;54349;52.528;19.760;2022-09-25T03:36:45;9.60;;;5.60;;
67500;SDS011;54349;52.528;19.760;2022-09-25T03:39:15;10.20;;;6.10;;
67500;SDS011;54349;52.528;19.760;2022-09-25T03:41:44;9.90;;;5.70;;
67500;SDS011;54349;52.528;19.760;2022-09-25T03:44:13;8.90;;;5.60;;
67500;SDS011;54349;52.528;19.760;2022-09-25T03:46:41;9.50;;;5.80;;
67500;SDS011;54349;52.528;19.760;2022-09-25T03:49:09;9.20;;;5.60;;
67500;SDS011;54349;52.528;19.760;2022-09-25T03:51:37;8.80;;;5.40;;
67500;SDS011;54349;52.528;19.760;2022-09-25T03:54:05;8.60;;;5.70;;
67500;SDS011;54349;52.528;19.760;2022-09-25T03:56:34;9.10;;;5.90;;
67500;SDS011;54349;52.528;19.760;2022-09-25T03:59:02;8.60;;;5.90;;
67500;SDS011;54349;52.528;19.760;2022-09-25T04:01:30;9.10;;;6.20;;
67500;SDS011;54349;52.528;19.760;2022-09-25T04:03:59;10.90;;;6.10;;
67500;SDS011;54349;52.528;19.760;2022-09-25T04:06:28;9.20;;;5.90;;
67500;SDS011;54349;52.528;19.760;2022-09-25T04:08:56;8.60;;;5.80;;
67500;SDS011;54349;52.528;19.760;2022-09-25T04:11:24;9.70;;;6.10;;
67500;SDS011;54349;52.528;19.760;2022-09-25T04:13:53;9.60;;;5.90;;
67500;SDS011;54349;52.528;19.760;2022-09-25T04:16:23;9.50;;;6.20;;
67500;SDS011;54349;52.528;19.760;2022-09-25T04:18:52;7.40;;;5.30;;
67500;SDS011;54349;52.528;19.760;2022-09-25T04:21:20;9.20;;;5.90;;
67500;SDS011;54349;52.528;19.760;2022-09-25T04:23:48;8.60;;;5.60;;
67500;SDS011;54349;52.528;19.760;2022-09-25T04:26:35;9.00;;;5.50;;
67500;SDS011;54349;52.528;19.760;2022-09-25T04:29:03;9.20;;;6.00;;
67500;SDS011;54349;52.528;19.760;2022-09-25T04:31:32;9.30;;;6.00;;
67500;SDS011;54349;52.528;19.760;2022-09-25T04:34:00;8.80;;;5.10;;
67500;SDS011;54349;52.528;19.760;2022-09-25T04:36:29;9.20;;;5.60;;
67500;SDS011;54349;52.528;19.760;2022-09-25T04:38:57;9.10;;;6.10;;
67500;SDS011;54349;52.528;19.760;2022-09-25T04:41:25;8.80;;;5.70;;
67500;SDS011;54349;52.528;19.760;2022-09-25T04:43:53;8.20;;;5.80;;
67500;SDS011;54349;52.528;19.760;2022-09-25T04:46:21;9.30;;;5.70;;
67500;SDS011;54349;52.528;19.760;2022-09-25T04:48:49;9.80;;;5.70;;
67500;SDS011;54349;52.528;19.760;2022-09-25T04:51:17;9.10;;;5.70;;
67500;SDS011;54349;52.528;19.760;2022-09-25T04:53:45;8.70;;;5.60;;
67500;SDS011;54349;52.528;19.760;2022-09-25T04:56:14;9.40;;;5.50;;
67500;SDS011;54349;52.528;19.760;2022-09-25T04:58:48;8.80;;;5.70;;
67500;SDS011;54349;52.528;19.760;2022-09-25T05:01:19;8.70;;;5.80;;
67500;SDS011;54349;52.528;19.760;2022-09-25T05:03:49;8.80;;;5.80;;
67500;SDS011;54349;52.528;19.760;2022-09-25T05:06:21;9.20;;;5.90;;
67500;SDS011;54349;52.528;19.760;2022-09-25T05:08:50;8.80;;;5.50;;
67500;SDS011;54349;52.528;19.760;2022-09-25T05:11:18;9.10;;;5.70;;
67500;SDS011;54349;52.528;19.760;2022-09-25T05:13:50;8.20;;;5.50;;
67500;SDS011;54349;52.528;19.760;2022-09-25T05:16:19;9.10;;;5.90;;
67500;SDS011;54349;52.528;19.760;2022-09-25T05:18:49;8.50;;;5.60;;
67500;SDS011;54349;52.528;19.760;2022-09-25T05:21:17;9.50;;;6.00;;
67500;SDS011;54349;52.528;19.760;2022-09-25T05:23:45;8.60;;;5.40;;
67500;SDS011;54349;52.528;19.760;2022-09-25T05:26:13;8.70;;;5.50;;
67500;SDS011;54349;52.528;19.760;2022-09-25T05:28:41;9.10;;;5.80;;
67500;SDS011;54349;52.528;19.760;2022-09-25T05:31:09;8.10;;;5.60;;
67500;SDS011;54349;52.528;19.760;2022-09-25T05:33:37;9.50;;;5.90;;
67500;SDS011;54349;52.528;19.760;2022-09-25T05:36:06;8.60;;;5.70;;
67500;SDS011;54349;52.528;19.760;2022-09-25T05:38:36;8.50;;;5.70;;
67500;SDS011;54349;52.528;19.760;2022-09-25T05:41:09;8.50;;;5.60;;
67500;SDS011;54349;52.528;19.760;2022-09-25T05:43:39;8.90;;;5.70;;
67500;SDS011;54349;52.528;19.760;2022-09-25T05:46:09;8.50;;;5.60;;
67500;SDS011;54349;52.528;19.760;2022-09-25T05:48:39;9.40;;;5.70;;
67500;SDS011;54349;52.528;19.760;2022-09-25T05:51:08;9.20;;;5.70;;
67500;SDS011;54349;52.528;19.760;2022-09-25T05:53:36;8.80;;;5.80;;
67500;SDS011;54349;52.528;19.760;2022-09-25T05:56:05;7.60;;;5.20;;
67500;SDS011;54349;52.528;19.760;2022-09-25T05:58:34;8.80;;;5.50;;
67500;SDS011;54349;52.528;19.760;2022-09-25T06:01:04;8.60;;;6.10;;
67500;SDS011;54349;52.528;19.760;2022-09-25T06:03:34;9.70;;;5.70;;
67500;SDS011;54349;52.528;19.760;2022-09-25T06:06:03;8.30;;;5.60;;
67500;SDS011;54349;52.528;19.760;2022-09-25T06:08:33;8.90;;;5.40;;
67500;SDS011;54349;52.528;19.760;2022-09-25T06:11:05;8.70;;;5.80;;
67500;SDS011;54349;52.528;19.760;2022-09-25T06:13:34;9.80;;;5.80;;
67500;SDS011;54349;52.528;19.760;2022-09-25T06:16:04;9.00;;;5.40;;
67500;SDS011;54349;52.528;19.760;2022-09-25T06:18:32;9.00;;;5.80;;
67500;SDS011;54349;52.528;19.760;2022-09-25T06:21:03;8.80;;;5.90;;
67500;SDS011;54349;52.528;19.760;2022-09-25T06:23:32;9.00;;;5.70;;
67500;SDS011;54349;52.528;19.760;2022-09-25T06:26:02;8.50;;;6.00;;
67500;SDS011;54349;52.528;19.760;2022-09-25T06:28:32;9.10;;;5.30;;
67500;SDS011;54349;52.528;19.760;2022-09-25T06:31:02;7.60;;;5.50;;
67500;SDS011;54349;52.528;19.760;2022-09-25T06:33:31;8.80;;;5.90;;
67500;SDS011;54349;52.528;19.760;2022-09-25T06:36:00;9.00;;;5.50;;
67500;SDS011;54349;52.528;19.760;2022-09-25T06:38:28;10.20;;;5.90;;
67500;SDS011;54349;52.528;19.760;2022-09-25T06:40:57;9.10;;;5.70;;
67500;SDS011;54349;52.528;19.760;2022-09-25T06:43:27;9.50;;;5.90;;
67500;SDS011;54349;52.528;19.760;2022-09-25T06:46:00;7.70;;;5.30;;
67500;SDS011;54349;52.528;19.760;2022-09-25T06:48:30;8.50;;;5.80;;
67500;SDS011;54349;52.528;19.760;2022-09-25T06:50:59;9.10;;;5.70;;
67500;SDS011;54349;52.528;19.760;2022-09-25T06:53:28;8.80;;;5.80;;
67500;SDS011;54349;52.528;19.760;2022-09-25T06:55:57;7.90;;;5.50;;
67500;SDS011;54349;52.528;19.760;2022-09-25T06:58:27;9.70;;;5.70;;
67500;SDS011;54349;52.528;19.760;2022-09-25T07:00:57;8.20;;;5.30;;
67500;SDS011;54349;52.528;19.760;2022-09-25T07:03:26;9.60;;;5.70;;
67500;SDS011;54349;52.528;19.760;2022-09-25T07:06:19;8.60;;;5.60;;
67500;SDS011;54349;52.528;19.760;2022-09-25T07:08:49;9.00;;;5.30;;
67500;SDS011;54349;52.528;19.760;2022-09-25T07:11:24;8.70;;;5.70;;
67500;SDS011;54349;52.528;19.760;2022-09-25T07:14:00;8.10;;;5.60;;
67500;SDS011;54349;52.528;19.760;2022-09-25T07:16:29;9.10;;;5.80;;
67500;SDS011;54349;52.528;19.760;2022-09-25T07:18:58;8.90;;;5.50;;
67500;SDS011;54349;52.528;19.760;2022-09-25T07:21:27;9.20;;;5.80;;
67500;SDS011;54349;52.528;19.760;2022-09-25T07:23:57;7.80;;;5.80;;
67500;SDS011;54349;52.528;19.760;2022-09-25T07:26:28;9.70;;;5.60;;
67500;SDS011;54349;52.528;19.760;2022-09-25T07:28:59;7.90;;;5.70;;
67500;SDS011;54349;52.528;19.760;2022-09-25T07:31:31;8.80;;;5.90;;
67500;SDS011;54349;52.528;19.760;2022-09-25T07:34:00;8.30;;;5.60;;
67500;SDS011;54349;52.528;19.760;2022-09-25T07:36:34;8.70;;;5.70;;
67500;SDS011;54349;52.528;19.760;2022-09-25T07:39:05;9.30;;;5.70;;
67500;SDS011;54349;52.528;19.760;2022-09-25T07:41:33;11.20;;;6.10;;
67500;SDS011;54349;52.528;19.760;2022-09-25T07:44:03;7.80;;;5.70;;
67500;SDS011;54349;52.528;19.760;2022-09-25T07:46:51;7.70;;;5.20;;
67500;SDS011;54349;52.528;19.760;2022-09-25T07:49:20;10.10;;;6.60;;
67500;SDS011;54349;52.528;19.760;2022-09-25T07:51:48;9.40;;;5.70;;
67500;SDS011;54349;52.528;19.760;2022-09-25T07:54:16;8.30;;;5.80;;
67500;SDS011;54349;52.528;19.760;2022-09-25T07:56:44;8.20;;;5.40;;
67500;SDS011;54349;52.528;19.760;2022-09-25T07:59:12;9.50;;;5.40;;
67500;SDS011;54349;52.528;19.760;2022-09-25T08:01:40;8.40;;;5.80;;
67500;SDS011;54349;52.528;19.760;2022-09-25T08:04:14;8.40;;;5.60;;
67500;SDS011;54349;52.528;19.760;2022-09-25T08:06:42;9.60;;;5.70;;
67500;SDS011;54349;52.528;19.760;2022-09-25T08:09:10;9.60;;;6.00;;
67500;SDS011;54349;52.528;19.760;2022-09-25T08:11:39;9.10;;;5.80;;
67500;SDS011;54349;52.528;19.760;2022-09-25T08:14:07;8.70;;;5.90;;
67500;SDS011;54349;52.528;19.760;2022-09-25T08:16:36;9.60;;;5.90;;
67500;SDS011;54349;52.528;19.760;2022-09-25T08:19:04;13.50;;;6.80;;
67500;SDS011;54349;52.528;19.760;2022-09-25T08:21:33;12.00;;;7.00;;
67500;SDS011;54349;52.528;19.760;2022-09-25T08:24:02;19.00;;;8.30;;
67500;SDS011;54349;52.528;19.760;2022-09-25T08:26:30;16.90;;;8.60;;
67500;SDS011;54349;52.528;19.760;2022-09-25T08:28:58;16.90;;;9.20;;
67500;SDS011;54349;52.528;19.760;2022-09-25T08:31:27;16.10;;;8.70;;
67500;SDS011;54349;52.528;19.760;2022-09-25T08:33:55;17.80;;;9.10;;
67500;SDS011;54349;52.528;19.760;2022-09-25T08:36:41;17.50;;;9.30;;
67500;SDS011;54349;52.528;19.760;2022-09-25T08:39:09;20.00;;;9.30;;
67500;SDS011;54349;52.528;19.760;2022-09-25T08:41:54;17.50;;;9.60;;
67500;SDS011;54349;52.528;19.760;2022-09-25T08:47:20;18.60;;;8.90;;
67500;SDS011;54349;52.528;19.760;2022-09-25T08:53:00;18.40;;;9.00;;
67500;SDS011;54349;52.528;19.760;2022-09-25T08:55:34;19.70;;;9.40;;
67500;SDS011;54349;52.528;19.760;2022-09-25T08:58:28;16.30;;;8.80;;
67500;SDS011;54349;52.528;19.760;2022-09-25T09:01:24;17.10;;;9.00;;
67500;SDS011;54349;52.528;19.760;2022-09-25T09:04:05;16.80;;;8.20;;
67500;SDS011;54349;52.528;19.760;2022-09-25T09:06:42;14.80;;;7.70;;
67500;SDS011;54349;52.528;19.760;2022-09-25T09:09:28;14.90;;;8.40;;
67500;SDS011;54349;52.528;19.760;2022-09-25T09:12:18;11.70;;;7.70;;
67500;SDS011;54349;52.528;19.760;2022-09-25T09:15:03;17.90;;;8.20;;
67500;SDS011;54349;52.528;19.760;2022-09-25T09:18:01;14.50;;;7.60;;
67500;SDS011;54349;52.528;19.760;2022-09-25T09:27:08;14.20;;;7.50;;
67500;SDS011;54349;52.528;19.760;2022-09-25T09:30:09;14.10;;;7.70;;
67500;SDS011;54349;52.528;19.760;2022-09-25T09:33:00;14.10;;;7.20;;
67500;SDS011;54349;52.528;19.760;2022-09-25T09:36:11;12.80;;;7.30;;
67500;SDS011;54349;52.528;19.760;2022-09-25T09:38:52;14.40;;;7.20;;
67500;SDS011;54349;52.528;19.760;2022-09-25T09:53:24;13.50;;;7.10;;
67500;SDS011;54349;52.528;19.760;2022-09-25T09:58:45;9.70;;;6.20;;
67500;SDS011;54349;52.528;19.760;2022-09-25T10:01:20;11.50;;;6.00;;
67500;SDS011;54349;52.528;19.760;2022-09-25T10:04:16;12.90;;;6.30;;
67500;SDS011;54349;52.528;19.760;2022-09-25T10:06:52;12.30;;;6.40;;
67500;SDS011;54349;52.528;19.760;2022-09-25T10:09:22;9.50;;;5.40;;
67500;SDS011;54349;52.528;19.760;2022-09-25T10:12:45;9.70;;;5.80;;
67500;SDS011;54349;52.528;19.760;2022-09-25T10:14:58;10.90;;;5.70;;
67500;SDS011;54349;52.528;19.760;2022-09-25T10:17:31;8.90;;;5.50;;
67500;SDS011;54349;52.528;19.760;2022-09-25T10:20:13;8.10;;;5.40;;
67500;SDS011;54349;52.528;19.760;2022-09-25T10:22:49;9.40;;;5.70;;
67500;SDS011;54349;52.528;19.760;2022-09-25T10:25:40;9.20;;;5.40;;
67500;SDS011;54349;52.528;19.760;2022-09-25T10:28:21;9.40;;;5.40;;
67500;SDS011;54349;52.528;19.760;2022-09-25T10:31:05;9.00;;;5.30;;
67500;SDS011;54349;52.528;19.760;2022-09-25T10:33:36;8.00;;;4.90;;
67500;SDS011;54349;52.528;19.760;2022-09-25T10:36:04;8.30;;;4.80;;
67500;SDS011;54349;52.528;19.760;2022-09-25T10:38:48;8.90;;;4.80;;
67500;SDS011;54349;52.528;19.760;2022-09-25T10:41:28;9.60;;;4.80;;
67500;SDS011;54349;52.528;19.760;2022-09-25T10:44:00;8.20;;;5.00;;
67500;SDS011;54349;52.528;19.760;2022-09-25T10:46:32;7.90;;;5.00;;
67500;SDS011;54349;52.528;19.760;2022-09-25T10:49:23;7.30;;;4.50;;
67500;SDS011;54349;52.528;19.760;2022-09-25T10:52:14;8.00;;;4.50;;
67500;SDS011;54349;52.528;19.760;2022-09-25T10:54:48;7.80;;;4.70;;
67500;SDS011;54349;52.528;19.760;2022-09-25T10:57:30;6.60;;;4.70;;
67500;SDS011;54349;52.528;19.760;2022-09-25T11:00:04;8.40;;;4.80;;
67500;SDS011;54349;52.528;19.760;2022-09-25T11:02:46;8.30;;;4.80;;
67500;SDS011;54349;52.528;19.760;2022-09-25T11:05:25;6.90;;;4.50;;
67500;SDS011;54349;52.528;19.760;2022-09-25T11:08:00;7.70;;;4.50;;
67500;SDS011;54349;52.528;19.760;2022-09-25T11:10:49;7.70;;;4.60;;
67500;SDS011;54349;52.528;19.760;2022-09-25T11:13:26;7.20;;;4.20;;
67500;SDS011;54349;52.528;19.760;2022-09-25T11:15:59;7.70;;;4.50;;
67500;SDS011;54349;52.528;19.760;2022-09-25T11:18:42;6.50;;;4.10;;
67500;SDS011;54349;52.528;19.760;2022-09-25T11:21:37;7.00;;;4.70;;
67500;SDS011;54349;52.528;19.760;2022-09-25T11:24:38;6.10;;;4.00;;
67500;SDS011;54349;52.528;19.760;2022-09-25T11:30:02;7.00;;;4.10;;
67500;SDS011;54349;52.528;19.760;2022-09-25T11:32:59;6.10;;;3.90;;
67500;SDS011;54349;52.528;19.760;2022-09-25T11:44:39;7.10;;;4.30;;
67500;SDS011;54349;52.528;19.760;2022-09-25T11:49:48;6.40;;;3.80;;
67500;SDS011;54349;52.528;19.760;2022-09-25T11:55:35;7.10;;;4.10;;
67500;SDS011;54349;52.528;19.760;2022-09-25T12:13:35;6.00;;;3.70;;
67500;SDS011;54349;52.528;19.760;2022-09-25T12:19:20;6.00;;;3.60;;
67500;SDS011;54349;52.528;19.760;2022-09-25T12:22:13;5.40;;;3.50;;
67500;SDS011;54349;52.528;19.760;2022-09-25T12:27:52;8.90;;;5.10;;
67500;SDS011;54349;52.528;19.760;2022-09-25T12:36:57;8.90;;;5.40;;
67500;SDS011;54349;52.528;19.760;2022-09-25T12:39:43;9.50;;;5.90;;
67500;SDS011;54349;52.528;19.760;2022-09-25T12:48:29;8.20;;;5.60;;
67500;SDS011;54349;52.528;19.760;2022-09-25T12:51:09;8.40;;;5.50;;
67500;SDS011;54349;52.528;19.760;2022-09-25T12:53:42;9.00;;;5.50;;
67500;SDS011;54349;52.528;19.760;2022-09-25T12:56:19;8.00;;;5.10;;
67500;SDS011;54349;52.528;19.760;2022-09-25T12:58:58;7.50;;;5.20;;
67500;SDS011;54349;52.528;19.760;2022-09-25T13:01:44;7.10;;;4.90;;
67500;SDS011;54349;52.528;19.760;2022-09-25T13:13:24;8.70;;;5.40;;
67500;SDS011;54349;52.528;19.760;2022-09-25T13:15:58;9.60;;;5.30;;
67500;SDS011;54349;52.528;19.760;2022-09-25T13:18:29;9.10;;;5.50;;
67500;SDS011;54349;52.528;19.760;2022-09-25T13:21:30;9.60;;;5.10;;
67500;SDS011;54349;52.528;19.760;2022-09-25T13:24:05;8.50;;;5.70;;
67500;SDS011;54349;52.528;19.760;2022-09-25T13:26:44;8.90;;;5.50;;
67500;SDS011;54349;52.528;19.760;2022-09-25T13:29:25;8.30;;;5.70;;
67500;SDS011;54349;52.528;19.760;2022-09-25T13:32:17;9.20;;;5.70;;
67500;SDS011;54349;52.528;19.760;2022-09-25T13:34:50;7.60;;;5.20;;
67500;SDS011;54349;52.528;19.760;2022-09-25T13:37:32;7.90;;;5.10;;
67500;SDS011;54349;52.528;19.760;2022-09-25T13:40:18;10.30;;;5.40;;
67500;SDS011;54349;52.528;19.760;2022-09-25T13:48:49;8.90;;;5.60;;
67500;SDS011;54349;52.528;19.760;2022-09-25T13:59:36;8.10;;;5.30;;
67500;SDS011;54349;52.528;19.760;2022-09-25T14:02:25;9.00;;;5.80;;
67500;SDS011;54349;52.528;19.760;2022-09-25T14:05:14;11.80;;;5.90;;
67500;SDS011;54349;52.528;19.760;2022-09-25T14:07:50;12.50;;;6.10;;
67500;SDS011;54349;52.528;19.760;2022-09-25T14:10:27;12.50;;;6.20;;
67500;SDS011;54349;52.528;19.760;2022-09-25T14:12:56;14.90;;;6.20;;
67500;SDS011;54349;52.528;19.760;2022-09-25T14:15:32;12.40;;;6.70;;
67500;SDS011;54349;52.528;19.760;2022-09-25T14:18:11;13.10;;;6.50;;
67500;SDS011;54349;52.528;19.760;2022-09-25T14:20:47;15.30;;;6.40;;
67500;SDS011;54349;52.528;19.760;2022-09-25T14:23:23;16.80;;;7.00;;
67500;SDS011;54349;52.528;19.760;2022-09-25T14:28:29;14.30;;;6.70;;
67500;SDS011;54349;52.528;19.760;2022-09-25T14:34:58;12.20;;;6.60;;
67500;SDS011;54349;52.528;19.760;2022-09-25T14:40:31;13.80;;;6.50;;
67500;SDS011;54349;52.528;19.760;2022-09-25T14:45:58;16.70;;;6.20;;
67500;SDS011;54349;52.528;19.760;2022-09-25T14:48:42;13.50;;;6.80;;
67500;SDS011;54349;52.528;19.760;2022-09-25T14:51:40;14.60;;;6.50;;
67500;SDS011;54349;52.528;19.760;2022-09-25T14:54:17;15.30;;;6.40;;
67500;SDS011;54349;52.528;19.760;2022-09-25T14:56:53;15.00;;;6.50;;
67500;SDS011;54349;52.528;19.760;2022-09-25T14:59:36;15.50;;;6.30;;
67500;SDS011;54349;52.528;19.760;2022-09-25T15:04:57;12.90;;;6.30;;
67500;SDS011;54349;52.528;19.760;2022-09-25T15:07:26;14.30;;;7.20;;
67500;SDS011;54349;52.528;19.760;2022-09-25T15:09:54;14.30;;;6.50;;
67500;SDS011;54349;52.528;19.760;2022-09-25T15:12:31;12.20;;;6.10;;
67500;SDS011;54349;52.528;19.760;2022-09-25T15:17:50;11.90;;;6.30;;
67500;SDS011;54349;52.528;19.760;2022-09-25T15:20:23;10.10;;;6.00;;
67500;SDS011;54349;52.528;19.760;2022-09-25T15:23:03;12.40;;;6.20;;
67500;SDS011;54349;52.528;19.760;2022-09-25T15:25:38;12.50;;;5.90;;
67500;SDS011;54349;52.528;19.760;2022-09-25T15:28:13;14.20;;;6.40;;
67500;SDS011;54349;52.528;19.760;2022-09-25T15:30:50;12.00;;;6.10;;
67500;SDS011;54349;52.528;19.760;2022-09-25T15:36:22;9.20;;;5.70;;
67500;SDS011;54349;52.528;19.760;2022-09-25T15:38:57;12.00;;;5.80;;
67500;SDS011;54349;52.528;19.760;2022-09-25T15:41:28;12.70;;;6.50;;
67500;SDS011;54349;52.528;19.760;2022-09-25T15:44:11;12.30;;;6.30;;
67500;SDS011;54349;52.528;19.760;2022-09-25T15:46:57;10.10;;;5.50;;
67500;SDS011;54349;52.528;19.760;2022-09-25T15:49:37;11.60;;;6.20;;
67500;SDS011;54349;52.528;19.760;2022-09-25T15:54:59;11.80;;;6.10;;
67500;SDS011;54349;52.528;19.760;2022-09-25T15:57:41;12.10;;;6.30;;
67500;SDS011;54349;52.528;19.760;2022-09-25T16:00:32;11.70;;;5.90;;
67500;SDS011;54349;52.528;19.760;2022-09-25T16:03:23;11.20;;;6.20;;
67500;SDS011;54349;52.528;19.760;2022-09-25T16:06:15;13.40;;;5.70;;
67500;SDS011;54349;52.528;19.760;2022-09-25T16:08:45;9.90;;;5.80;;
67500;SDS011;54349;52.528;19.760;2022-09-25T16:11:22;9.70;;;5.40;;
67500;SDS011;54349;52.528;19.760;2022-09-25T16:16:56;11.20;;;5.90;;
67500;SDS011;54349;52.528;19.760;2022-09-25T16:19:33;10.80;;;6.00;;
67500;SDS011;54349;52.528;19.760;2022-09-25T16:22:19;10.70;;;5.90;;
67500;SDS011;54349;52.528;19.760;2022-09-25T16:24:52;10.30;;;5.70;;
67500;SDS011;54349;52.528;19.760;2022-09-25T16:27:42;10.10;;;5.60;;
67500;SDS011;54349;52.528;19.760;2022-09-25T16:30:19;8.70;;;5.20;;
67500;SDS011;54349;52.528;19.760;2022-09-25T16:32:56;10.00;;;5.90;;
67500;SDS011;54349;52.528;19.760;2022-09-25T16:35:40;10.30;;;6.00;;
67500;SDS011;54349;52.528;19.760;2022-09-25T16:38:34;10.40;;;5.60;;
67500;SDS011;54349;52.528;19.760;2022-09-25T16:41:20;9.30;;;5.40;;
67500;SDS011;54349;52.528;19.760;2022-09-25T16:44:27;10.00;;;5.50;;
67500;SDS011;54349;52.528;19.760;2022-09-25T16:49:33;11.50;;;5.80;;
67500;SDS011;54349;52.528;19.760;2022-09-25T16:52:05;11.60;;;6.30;;
67500;SDS011;54349;52.528;19.760;2022-09-25T16:54:36;11.60;;;6.00;;
67500;SDS011;54349;52.528;19.760;2022-09-25T16:57:05;9.70;;;5.80;;
67500;SDS011;54349;52.528;19.760;2022-09-25T16:59:33;11.30;;;6.40;;
67500;SDS011;54349;52.528;19.760;2022-09-25T17:02:15;10.00;;;6.10;;
67500;SDS011;54349;52.528;19.760;2022-09-25T17:07:46;12.20;;;6.50;;
67500;SDS011;54349;52.528;19.760;2022-09-25T17:10:20;10.90;;;6.40;;
67500;SDS011;54349;52.528;19.760;2022-09-25T17:12:51;10.40;;;6.50;;
67500;SDS011;54349;52.528;19.760;2022-09-25T17:15:31;10.60;;;6.30;;
67500;SDS011;54349;52.528;19.760;2022-09-25T17:18:02;11.40;;;6.80;;
67500;SDS011;54349;52.528;19.760;2022-09-25T17:20:38;12.30;;;6.60;;
67500;SDS011;54349;52.528;19.760;2022-09-25T17:23:08;10.00;;;6.80;;
67500;SDS011;54349;52.528;19.760;2022-09-25T17:25:42;11.70;;;6.90;;
67500;SDS011;54349;52.528;19.760;2022-09-25T17:28:15;10.90;;;6.80;;
67500;SDS011;54349;52.528;19.760;2022-09-25T17:30:44;12.00;;;7.60;;
67500;SDS011;54349;52.528;19.760;2022-09-25T17:33:15;12.50;;;8.00;;
67500;SDS011;54349;52.528;19.760;2022-09-25T17:36:01;14.40;;;8.80;;
67500;SDS011;54349;52.528;19.760;2022-09-25T17:38:33;13.40;;;8.50;;
67500;SDS011;54349;52.528;19.760;2022-09-25T17:41:05;13.90;;;8.30;;
67500;SDS011;54349;52.528;19.760;2022-09-25T17:43:39;12.70;;;8.70;;
67500;SDS011;54349;52.528;19.760;2022-09-25T17:46:08;13.40;;;8.30;;
67500;SDS011;54349;52.528;19.760;2022-09-25T17:48:37;12.50;;;7.90;;
67500;SDS011;54349;52.528;19.760;2022-09-25T17:53:46;14.50;;;7.80;;
67500;SDS011;54349;52.528;19.760;2022-09-25T17:56:19;12.20;;;8.20;;
67500;SDS011;54349;52.528;19.760;2022-09-25T17:58:47;14.30;;;8.50;;
67500;SDS011;54349;52.528;19.760;2022-09-25T18:01:18;11.60;;;7.90;;